sensor_id;sensor_type;location;lat;lon;timestamp;pressure;altitude;pressure_sealevel;temperature;humidity
54951;BME280;40854;45.282;4.302;2022-08-05T12:12:07;92290.94;;;26.42;42.77
54951;BME280;40854;45.282;4.302;2022-08-05T12:14:37;92273.97;;;27.93;38.50
54951;BME280;40854;45.282;4.302;2022-08-05T12:17:12;92268.41;;;28.69;37.11
54951;BME280;40854;45.282;4.302;2022-08-05T12:19:46;92267.78;;;29.35;35.87
54951;BME280;40854;45.282;4.302;2022-08-05T12:22:14;92265.50;;;29.69;36.24
54951;BME280;40854;45.282;4.302;2022-08-05T12:24:46;92253.59;;;29.89;35.64
54951;BME280;40854;45.282;4.302;2022-08-05T12:27:20;92251.00;;;30.12;35.25
54951;BME280;40854;45.282;4.302;2022-08-05T12:30:09;92251.28;;;30.26;34.79
54951;BME280;40854;45.282;4.302;2022-08-05T12:32:46;92274.22;;;30.32;34.89
54951;BME280;40854;45.282;4.302;2022-08-05T12:35:16;92278.97;;;30.20;34.94
54951;BME280;40854;45.282;4.302;2022-08-05T12:37:44;92278.84;;;30.32;35.21
54951;BME280;40854;45.282;4.302;2022-08-05T12:40:11;92279.00;;;30.39;34.15
54951;BME280;40854;45.282;4.302;2022-08-05T12:42:38;92288.53;;;30.33;34.61
54951;BME280;40854;45.282;4.302;2022-08-05T12:45:06;92278.78;;;30.28;34.79
54951;BME280;40854;45.282;4.302;2022-08-05T12:47:32;92287.72;;;30.13;34.10
54951;BME280;40854;45.282;4.302;2022-08-05T12:49:59;92281.91;;;29.95;35.28
54951;BME280;40854;45.282;4.302;2022-08-05T12:52:25;92275.91;;;29.86;35.90
54951;BME280;40854;45.282;4.302;2022-08-05T12:54:51;92270.78;;;29.81;36.12
54951;BME280;40854;45.282;4.302;2022-08-05T12:57:18;92265.09;;;29.86;35.80
54951;BME280;40854;45.282;4.302;2022-08-05T12:59:50;92274.69;;;29.84;35.76
54951;BME280;40854;45.282;4.302;2022-08-05T13:02:22;92297.31;;;29.60;35.85
54951;BME280;40854;45.282;4.302;2022-08-05T13:04:49;92320.00;;;27.51;39.68
54951;BME280;40854;45.282;4.302;2022-08-05T13:07:19;92307.31;;;27.52;39.52
54951;BME280;40854;45.282;4.302;2022-08-05T13:09:55;92317.75;;;27.16;40.15
54951;BME280;40854;45.282;4.302;2022-08-05T13:12:24;92324.38;;;26.86;40.78
54951;BME280;40854;45.282;4.302;2022-08-05T13:14:57;92325.09;;;26.62;41.66
54951;BME280;40854;45.282;4.302;2022-08-05T13:56:23;92438.03;;;25.44;47.23
54951;BME280;40854;45.282;4.302;2022-08-05T13:58:49;92458.88;;;25.47;47.08
54951;BME280;40854;45.282;4.302;2022-08-05T14:01:15;92468.81;;;25.47;47.08
54951;BME280;40854;45.282;4.302;2022-08-05T15:04:03;92613.47;;;25.40;46.49
54951;BME280;40854;45.282;4.302;2022-08-05T15:06:30;92614.75;;;25.34;47.08
54951;BME280;40854;45.282;4.302;2022-08-05T15:08:56;92621.53;;;25.31;48.01
54951;BME280;40854;45.282;4.302;2022-08-05T15:11:22;92620.59;;;25.27;48.40
54951;BME280;40854;45.282;4.302;2022-08-05T15:13:47;92627.06;;;25.26;48.42
54951;BME280;40854;45.282;4.302;2022-08-05T15:16:13;92623.75;;;25.20;48.69
54951;BME280;40854;45.282;4.302;2022-08-05T15:18:38;92624.06;;;25.19;49.13
54951;BME280;40854;45.282;4.302;2022-08-05T15:21:04;92627.38;;;25.16;49.12
54951;BME280;40854;45.282;4.302;2022-08-05T15:23:30;92621.22;;;25.15;49.80
54951;BME280;40854;45.282;4.302;2022-08-05T15:25:56;92612.69;;;25.13;49.77
54951;BME280;40854;45.282;4.302;2022-08-05T15:28:21;92608.09;;;25.14;49.86
54951;BME280;40854;45.282;4.302;2022-08-05T15:30:47;92603.38;;;25.02;50.62
54951;BME280;40854;45.282;4.302;2022-08-05T15:33:13;92602.53;;;24.93;50.75
54951;BME280;40854;45.282;4.302;2022-08-05T15:35:39;92617.97;;;24.87;50.72
54951;BME280;40854;45.282;4.302;2022-08-05T15:38:05;92600.63;;;24.85;50.91
54951;BME280;40854;45.282;4.302;2022-08-05T15:40:30;92602.53;;;24.84;50.97
54951;BME280;40854;45.282;4.302;2022-08-05T15:42:56;92581.84;;;24.85;50.65
54951;BME280;40854;45.282;4.302;2022-08-05T15:45:22;92556.91;;;24.84;50.72
54951;BME280;40854;45.282;4.302;2022-08-05T15:47:47;92538.47;;;24.83;50.82
54951;BME280;40854;45.282;4.302;2022-08-05T15:50:13;92517.94;;;24.87;50.72
54951;BME280;40854;45.282;4.302;2022-08-05T15:52:39;92504.22;;;24.88;50.46
54951;BME280;40854;45.282;4.302;2022-08-05T15:55:07;92505.81;;;24.89;50.15
54951;BME280;40854;45.282;4.302;2022-08-05T15:57:33;92503.13;;;24.89;50.03
54951;BME280;40854;45.282;4.302;2022-08-05T15:59:59;92482.75;;;24.88;50.04
54951;BME280;40854;45.282;4.302;2022-08-05T16:02:25;92464.31;;;24.87;50.47
54951;BME280;40854;45.282;4.302;2022-08-05T16:04:50;92467.16;;;24.90;50.50
54951;BME280;40854;45.282;4.302;2022-08-05T16:07:17;92470.16;;;24.89;50.33
54951;BME280;40854;45.282;4.302;2022-08-05T16:09:42;92483.56;;;24.89;50.21
54951;BME280;40854;45.282;4.302;2022-08-05T16:12:08;92463.22;;;24.88;50.40
54951;BME280;40854;45.282;4.302;2022-08-05T16:14:34;92457.06;;;24.87;50.03
54951;BME280;40854;45.282;4.302;2022-08-05T16:16:59;92468.41;;;24.84;50.08
54951;BME280;40854;45.282;4.302;2022-08-05T16:19:25;92482.94;;;24.83;50.20
54951;BME280;40854;45.282;4.302;2022-08-05T16:21:52;92507.69;;;24.80;50.04
54951;BME280;40854;45.282;4.302;2022-08-05T16:24:18;92519.53;;;24.79;50.43
54951;BME280;40854;45.282;4.302;2022-08-05T16:26:52;92515.72;;;24.72;50.05
54951;BME280;40854;45.282;4.302;2022-08-05T16:29:19;92511.00;;;24.69;50.14
54951;BME280;40854;45.282;4.302;2022-08-05T16:31:45;92503.91;;;24.64;50.27
54951;BME280;40854;45.282;4.302;2022-08-05T16:34:11;92501.53;;;24.63;49.84
54951;BME280;40854;45.282;4.302;2022-08-05T16:36:37;92513.19;;;24.58;49.83
54951;BME280;40854;45.282;4.302;2022-08-05T16:39:02;92517.78;;;24.57;49.64
54951;BME280;40854;45.282;4.302;2022-08-05T16:41:28;92509.25;;;24.55;49.34
54951;BME280;40854;45.282;4.302;2022-08-05T16:43:53;92512.09;;;24.50;49.70
54951;BME280;40854;45.282;4.302;2022-08-05T16:46:19;92509.41;;;24.50;49.47
54951;BME280;40854;45.282;4.302;2022-08-05T16:48:44;92502.31;;;24.46;49.58
54951;BME280;40854;45.282;4.302;2022-08-05T16:51:10;92509.56;;;24.45;49.60
54951;BME280;40854;45.282;4.302;2022-08-05T16:53:40;92516.81;;;24.45;49.36
54951;BME280;40854;45.282;4.302;2022-08-05T16:56:06;92517.44;;;24.42;49.60
54951;BME280;40854;45.282;4.302;2022-08-05T16:58:32;92523.88;;;24.41;49.97
54951;BME280;40854;45.282;4.302;2022-08-05T17:00:58;92510.50;;;24.41;49.67
54951;BME280;40854;45.282;4.302;2022-08-05T17:03:23;92501.97;;;24.39;49.55
54951;BME280;40854;45.282;4.302;2022-08-05T17:05:49;92502.59;;;24.36;50.09
54951;BME280;40854;45.282;4.302;2022-08-05T17:08:14;92497.50;;;24.25;50.84
54951;BME280;40854;45.282;4.302;2022-08-05T17:10:40;92486.66;;;24.31;50.27
54951;BME280;40854;45.282;4.302;2022-08-05T17:13:06;92477.84;;;24.39;49.88
54951;BME280;40854;45.282;4.302;2022-08-05T17:15:31;92481.97;;;24.45;50.13
54951;BME280;40854;45.282;4.302;2022-08-05T17:17:57;92475.81;;;24.53;49.97
54951;BME280;40854;45.282;4.302;2022-08-05T17:20:22;92483.06;;;24.61;49.56
54951;BME280;40854;45.282;4.302;2022-08-05T17:22:48;92478.50;;;24.70;49.89
54951;BME280;40854;45.282;4.302;2022-08-05T17:25:14;92482.75;;;24.88;50.18
54951;BME280;40854;45.282;4.302;2022-08-05T17:27:39;92474.25;;;25.12;49.20
54951;BME280;40854;45.282;4.302;2022-08-05T17:30:05;92468.84;;;25.30;49.01
54951;BME280;40854;45.282;4.302;2022-08-05T17:32:31;92461.88;;;25.46;48.03
54951;BME280;40854;45.282;4.302;2022-08-05T17:34:57;92453.16;;;25.58;47.88
